Airfield :
LOGIN :

Register | Disclaimer

   EN    FR    IT 

 










Legend :    VFR   Marginal VFR   IFR   Intensive IFR   Very Intensive IFR
Visi :
Ceiling :
>= 8 km
>= 3000ft
5 to 8 km
1000 to 3000 ft
1500m to 5 km
500 to 1000 ft
800 to 1500m
200 to 500 ft
< 800m
< 200 ft
Symbols :   Thunderstorms  Fog  Heavy snow  Heavy precipitations  Wind > 20 kt
SIGMETs :     Misc.  Thunderstorms  Icing  Turbulence  Mountain Waves  Volcanic Ashes







- Airport Elevation : 12 ft
- IATA code : BCN


LEBL - Barcelone

CURRENT METAR :
  • 241330Z 22014KT 9999 FEW015 25/19 Q1019 NOSIG

EXPIRED METARs :
  • 241300Z 22014KT 9999 FEW030 24/19 Q1019 NOSIG
  • 241230Z 21014KT 9999 FEW030 25/19 Q1019 NOSIG
  • 241200Z 21013KT 180V240 9999 FEW030 25/20 Q1019 NOSIG
  • 241130Z 22012KT 9999 FEW025 24/19 Q1019 NOSIG
  • 241100Z 22012KT 190V250 9999 FEW025 24/20 Q1020 NOSIG

TAF TAF LEBL
Valid from the 24 at 12:00 until the 25 at 12:00 UTC


241100Z 2412/2512 21012KT 9999 FEW015 SCT020 TX26/2412Z TN18/2506Z
BECMG 2420/2422 34005KT
BECMG 2508/2510 21008KT
No reported NOTAMs for that airfield.



MET'MAP, your aeronautical weather chart ! - Copyright ORBIFLY December 2007 - Disclaimer

ORBIFLY MET'MAP TEAM :

Programming & Development : Alexandra Zaïnal
Concept & Development : Baudouin d'Aumeries
Co-Development & Prog : Marc-Olivier Méhu
Technical & hardware support : Manuel Goepfert

Contact : metmap@orbifly.com




SOURCES & CREDITS :

   NOAA